sensor_id;sensor_type;location;lat;lon;timestamp;pressure;altitude;pressure_sealevel;temperature;humidity
22653;BME280;11493;43.344;26.226;2024-03-23T00:55:43;99422.22;;;1.15;100.00
22653;BME280;11493;43.344;26.226;2024-03-23T00:58:10;99419.50;;;1.15;100.00
22653;BME280;11493;43.344;26.226;2024-03-23T01:00:36;99427.13;;;1.18;100.00
22653;BME280;11493;43.344;26.226;2024-03-23T01:03:02;99420.06;;;1.17;100.00
22653;BME280;11493;43.344;26.226;2024-03-23T01:05:28;99427.44;;;1.22;100.00
22653;BME280;11493;43.344;26.226;2024-03-23T01:07:54;99421.78;;;1.23;100.00
22653;BME280;11493;43.344;26.226;2024-03-23T01:10:20;99423.41;;;1.24;100.00
22653;BME280;11493;43.344;26.226;2024-03-23T01:12:50;99418.50;;;1.21;100.00
22653;BME280;11493;43.344;26.226;2024-03-23T01:15:16;99419.81;;;1.19;100.00
22653;BME280;11493;43.344;26.226;2024-03-23T01:17:43;99429.53;;;1.15;100.00
22653;BME280;11493;43.344;26.226;2024-03-23T01:20:10;99421.31;;;1.10;100.00
22653;BME280;11493;43.344;26.226;2024-03-23T01:22:40;99418.22;;;1.01;100.00
22653;BME280;11493;43.344;26.226;2024-03-23T01:25:07;99420.38;;;0.99;100.00
22653;BME280;11493;43.344;26.226;2024-03-23T01:27:34;99418.16;;;0.96;100.00
22653;BME280;11493;43.344;26.226;2024-03-23T01:30:00;99412.41;;;0.92;100.00
22653;BME280;11493;43.344;26.226;2024-03-23T01:32:27;99394.25;;;0.71;100.00
22653;BME280;11493;43.344;26.226;2024-03-23T01:34:53;99418.44;;;0.78;100.00
22653;BME280;11493;43.344;26.226;2024-03-23T01:37:21;99414.59;;;0.74;100.00
22653;BME280;11493;43.344;26.226;2024-03-23T01:39:47;99414.53;;;0.69;100.00
22653;BME280;11493;43.344;26.226;2024-03-23T01:42:14;99411.75;;;0.63;100.00
22653;BME280;11493;43.344;26.226;2024-03-23T01:44:39;99404.19;;;0.65;100.00
22653;BME280;11493;43.344;26.226;2024-03-23T01:47:06;99399.97;;;0.75;100.00
22653;BME280;11493;43.344;26.226;2024-03-23T01:49:33;99411.34;;;0.72;100.00
22653;BME280;11493;43.344;26.226;2024-03-23T01:51:59;99389.66;;;0.72;100.00
22653;BME280;11493;43.344;26.226;2024-03-23T01:54:26;99392.38;;;0.72;100.00
22653;BME280;11493;43.344;26.226;2024-03-23T01:56:52;99393.44;;;0.71;100.00
22653;BME280;11493;43.344;26.226;2024-03-23T01:59:20;99392.38;;;0.72;100.00
22653;BME280;11493;43.344;26.226;2024-03-23T02:01:47;99399.09;;;0.69;100.00
22653;BME280;11493;43.344;26.226;2024-03-23T02:04:13;99404.03;;;0.72;100.00
22653;BME280;11493;43.344;26.226;2024-03-23T02:06:39;99398.28;;;0.69;100.00
22653;BME280;11493;43.344;26.226;2024-03-23T02:09:05;99387.94;;;0.65;100.00
22653;BME280;11493;43.344;26.226;2024-03-23T02:11:33;99371.47;;;0.67;100.00
22653;BME280;11493;43.344;26.226;2024-03-23T02:13:59;99382.84;;;0.69;100.00
22653;BME280;11493;43.344;26.226;2024-03-23T02:16:25;99395.13;;;0.77;100.00
22653;BME280;11493;43.344;26.226;2024-03-23T02:18:51;99388.84;;;0.71;100.00
22653;BME280;11493;43.344;26.226;2024-03-23T02:21:17;99384.50;;;0.70;100.00
22653;BME280;11493;43.344;26.226;2024-03-23T02:23:46;99400.41;;;0.67;100.00
22653;BME280;11493;43.344;26.226;2024-03-23T02:26:12;99397.38;;;0.63;100.00
22653;BME280;11493;43.344;26.226;2024-03-23T02:28:41;99399.03;;;0.64;100.00
22653;BME280;11493;43.344;26.226;2024-03-23T02:31:11;99391.72;;;0.64;100.00
22653;BME280;11493;43.344;26.226;2024-03-23T02:33:37;99392.31;;;0.67;100.00
22653;BME280;11493;43.344;26.226;2024-03-23T02:36:04;99403.22;;;0.72;100.00
22653;BME280;11493;43.344;26.226;2024-03-23T02:38:30;99399.44;;;0.73;100.00
22653;BME280;11493;43.344;26.226;2024-03-23T02:41:04;99405.97;;;0.77;100.00
22653;BME280;11493;43.344;26.226;2024-03-23T02:43:32;99394.13;;;0.83;100.00
22653;BME280;11493;43.344;26.226;2024-03-23T02:45:58;99395.19;;;0.82;100.00
22653;BME280;11493;43.344;26.226;2024-03-23T02:48:27;99393.88;;;0.84;100.00
22653;BME280;11493;43.344;26.226;2024-03-23T02:50:53;99376.69;;;0.74;100.00
22653;BME280;11493;43.344;26.226;2024-03-23T02:53:20;99391.00;;;0.91;100.00
22653;BME280;11493;43.344;26.226;2024-03-23T02:55:46;99391.50;;;0.88;100.00
22653;BME280;11493;43.344;26.226;2024-03-23T02:58:12;99391.41;;;0.83;100.00
22653;BME280;11493;43.344;26.226;2024-03-23T03:00:40;99394.63;;;0.80;100.00
22653;BME280;11493;43.344;26.226;2024-03-23T03:03:07;99398.22;;;0.85;100.00
22653;BME280;11493;43.344;26.226;2024-03-23T03:05:39;99397.13;;;1.03;100.00
22653;BME280;11493;43.344;26.226;2024-03-23T03:08:07;99391.38;;;0.99;100.00
22653;BME280;11493;43.344;26.226;2024-03-23T03:10:33;99387.66;;;1.06;100.00
22653;BME280;11493;43.344;26.226;2024-03-23T03:13:03;99392.84;;;1.07;100.00
22653;BME280;11493;43.344;26.226;2024-03-23T03:15:29;99378.78;;;1.10;100.00
22653;BME280;11493;43.344;26.226;2024-03-23T03:17:56;99381.56;;;1.15;100.00
22653;BME280;11493;43.344;26.226;2024-03-23T03:20:22;99384.25;;;0.93;100.00
22653;BME280;11493;43.344;26.226;2024-03-23T03:22:49;99403.97;;;0.89;100.00
22653;BME280;11493;43.344;26.226;2024-03-23T03:25:16;99382.66;;;0.76;100.00
22653;BME280;11493;43.344;26.226;2024-03-23T03:27:42;99388.22;;;0.86;100.00
22653;BME280;11493;43.344;26.226;2024-03-23T03:30:09;99365.72;;;0.63;100.00
22653;BME280;11493;43.344;26.226;2024-03-23T03:32:35;99389.72;;;0.77;100.00
22653;BME280;11493;43.344;26.226;2024-03-23T03:35:01;99383.94;;;0.68;100.00
22653;BME280;11493;43.344;26.226;2024-03-23T03:37:27;99395.13;;;0.77;100.00
22653;BME280;11493;43.344;26.226;2024-03-23T03:39:53;99361.88;;;0.59;100.00
22653;BME280;11493;43.344;26.226;2024-03-23T03:42:19;99385.88;;;0.73;100.00
22653;BME280;11493;43.344;26.226;2024-03-23T03:44:46;99393.00;;;0.79;100.00
22653;BME280;11493;43.344;26.226;2024-03-23T03:47:12;99370.31;;;0.63;100.00
22653;BME280;11493;43.344;26.226;2024-03-23T03:49:38;99396.00;;;0.60;100.00
22653;BME280;11493;43.344;26.226;2024-03-23T03:52:04;99391.09;;;0.57;100.00
22653;BME280;11493;43.344;26.226;2024-03-23T03:54:30;99392.56;;;0.48;100.00
22653;BME280;11493;43.344;26.226;2024-03-23T03:56:57;99396.84;;;0.44;100.00
22653;BME280;11493;43.344;26.226;2024-03-23T03:59:24;99391.25;;;0.34;100.00
22653;BME280;11493;43.344;26.226;2024-03-23T04:01:50;99400.69;;;0.31;100.00
22653;BME280;11493;43.344;26.226;2024-03-23T04:04:16;99393.88;;;0.29;100.00
22653;BME280;11493;43.344;26.226;2024-03-23T04:06:43;99399.22;;;0.24;100.00
22653;BME280;11493;43.344;26.226;2024-03-23T04:09:13;99393.22;;;0.22;100.00
22653;BME280;11493;43.344;26.226;2024-03-23T04:11:39;99395.84;;;0.17;100.00
22653;BME280;11493;43.344;26.226;2024-03-23T04:14:05;99402.06;;;0.17;100.00
22653;BME280;11493;43.344;26.226;2024-03-23T04:16:35;99402.41;;;0.21;100.00
22653;BME280;11493;43.344;26.226;2024-03-23T04:19:01;99392.41;;;0.21;100.00
22653;BME280;11493;43.344;26.226;2024-03-23T04:21:28;99397.00;;;0.21;100.00
22653;BME280;11493;43.344;26.226;2024-03-23T04:23:54;99391.59;;;0.21;100.00
22653;BME280;11493;43.344;26.226;2024-03-23T04:26:19;99391.81;;;0.19;100.00
22653;BME280;11493;43.344;26.226;2024-03-23T04:28:46;99391.75;;;0.14;100.00
22653;BME280;11493;43.344;26.226;2024-03-23T04:31:13;99386.81;;;0.11;100.00
22653;BME280;11493;43.344;26.226;2024-03-23T04:33:40;99386.91;;;0.16;100.00
22653;BME280;11493;43.344;26.226;2024-03-23T04:36:06;99385.44;;;0.09;100.00
22653;BME280;11493;43.344;26.226;2024-03-23T04:38:33;99390.91;;;0.14;100.00
22653;BME280;11493;43.344;26.226;2024-03-23T04:40:59;99380.00;;;0.09;100.00
22653;BME280;11493;43.344;26.226;2024-03-23T04:43:28;99400.59;;;0.26;100.00
22653;BME280;11493;43.344;26.226;2024-03-23T04:45:54;99398.97;;;0.25;100.00
22653;BME280;11493;43.344;26.226;2024-03-23T04:48:21;99399.78;;;0.26;100.00
22653;BME280;11493;43.344;26.226;2024-03-23T04:50:55;99402.56;;;0.31;100.00
22653;BME280;11493;43.344;26.226;2024-03-23T04:53:24;99396.66;;;0.34;100.00
22653;BME280;11493;43.344;26.226;2024-03-23T04:55:56;99397.31;;;0.41;100.00
22653;BME280;11493;43.344;26.226;2024-03-23T04:58:25;99384.28;;;0.38;100.00
22653;BME280;11493;43.344;26.226;2024-03-23T05:00:57;99391.41;;;0.44;100.00
22653;BME280;11493;43.344;26.226;2024-03-23T05:03:23;99393.78;;;0.57;100.00
22653;BME280;11493;43.344;26.226;2024-03-23T05:05:49;99394.13;;;0.61;100.00
22653;BME280;11493;43.344;26.226;2024-03-23T05:08:16;99399.47;;;0.78;100.00
22653;BME280;11493;43.344;26.226;2024-03-23T05:10:43;99386.56;;;0.85;100.00
22653;BME280;11493;43.344;26.226;2024-03-23T05:13:10;99406.56;;;1.01;100.00
22653;BME280;11493;43.344;26.226;2024-03-23T05:15:36;99403.25;;;1.15;100.00
22653;BME280;11493;43.344;26.226;2024-03-23T05:18:03;99402.31;;;1.26;100.00
22653;BME280;11493;43.344;26.226;2024-03-23T05:20:34;99382.06;;;1.34;100.00
22653;BME280;11493;43.344;26.226;2024-03-23T05:23:00;99361.75;;;1.37;100.00
22653;BME280;11493;43.344;26.226;2024-03-23T05:25:26;99387.75;;;1.59;100.00
22653;BME280;11493;43.344;26.226;2024-03-23T05:27:52;99365.41;;;1.47;100.00
22653;BME280;11493;43.344;26.226;2024-03-23T05:30:18;99392.56;;;1.79;100.00
22653;BME280;11493;43.344;26.226;2024-03-23T05:32:44;99397.34;;;1.94;100.00
22653;BME280;11493;43.344;26.226;2024-03-23T05:35:11;99365.66;;;1.73;100.00
22653;BME280;11493;43.344;26.226;2024-03-23T05:37:37;99387.19;;;1.84;100.00
22653;BME280;11493;43.344;26.226;2024-03-23T05:40:07;99383.06;;;1.77;100.00
22653;BME280;11493;43.344;26.226;2024-03-23T05:42:38;99389.41;;;1.87;100.00
22653;BME280;11493;43.344;26.226;2024-03-23T05:45:05;99393.81;;;1.93;100.00
22653;BME280;11493;43.344;26.226;2024-03-23T05:47:35;99377.06;;;2.02;100.00
22653;BME280;11493;43.344;26.226;2024-03-23T05:50:02;99382.31;;;2.13;100.00
22653;BME280;11493;43.344;26.226;2024-03-23T05:52:28;99384.06;;;2.29;100.00
22653;BME280;11493;43.344;26.226;2024-03-23T05:54:58;99389.81;;;2.38;100.00
22653;BME280;11493;43.344;26.226;2024-03-23T05:57:24;99380.19;;;2.57;100.00
22653;BME280;11493;43.344;26.226;2024-03-23T05:59:52;99384.63;;;2.69;100.00
22653;BME280;11493;43.344;26.226;2024-03-23T06:02:18;99385.25;;;2.81;100.00
22653;BME280;11493;43.344;26.226;2024-03-23T06:04:45;99374.16;;;2.92;100.00
22653;BME280;11493;43.344;26.226;2024-03-23T06:07:12;99385.16;;;3.18;100.00
22653;BME280;11493;43.344;26.226;2024-03-23T06:09:43;99376.00;;;3.44;100.00
22653;BME280;11493;43.344;26.226;2024-03-23T06:12:09;99374.69;;;3.57;100.00
22653;BME280;11493;43.344;26.226;2024-03-23T06:14:35;99368.19;;;3.73;100.00
22653;BME280;11493;43.344;26.226;2024-03-23T06:17:01;99379.91;;;3.94;100.00
22653;BME280;11493;43.344;26.226;2024-03-23T06:19:28;99375.31;;;4.10;100.00
22653;BME280;11493;43.344;26.226;2024-03-23T06:22:00;99370.97;;;4.34;100.00
22653;BME280;11493;43.344;26.226;2024-03-23T06:24:27;99372.84;;;4.59;97.68
22653;BME280;11493;43.344;26.226;2024-03-23T06:26:56;99380.16;;;4.84;97.13
22653;BME280;11493;43.344;26.226;2024-03-23T06:29:22;99364.03;;;5.03;94.14
22653;BME280;11493;43.344;26.226;2024-03-23T06:31:56;99362.84;;;5.24;93.67
22653;BME280;11493;43.344;26.226;2024-03-23T06:34:22;99377.72;;;5.52;93.14
22653;BME280;11493;43.344;26.226;2024-03-23T06:36:49;99379.28;;;5.68;93.11
22653;BME280;11493;43.344;26.226;2024-03-23T06:39:19;99374.81;;;5.87;92.78
22653;BME280;11493;43.344;26.226;2024-03-23T06:41:53;99380.63;;;6.15;92.14
22653;BME280;11493;43.344;26.226;2024-03-23T06:44:20;99378.84;;;6.34;91.60
22653;BME280;11493;43.344;26.226;2024-03-23T06:46:51;99365.06;;;6.49;92.13
22653;BME280;11493;43.344;26.226;2024-03-23T06:49:20;99379.47;;;6.84;91.81
22653;BME280;11493;43.344;26.226;2024-03-23T06:51:48;99382.81;;;7.05;91.58
22653;BME280;11493;43.344;26.226;2024-03-23T06:54:16;99368.31;;;7.28;91.47
22653;BME280;11493;43.344;26.226;2024-03-23T06:56:46;99368.09;;;7.43;90.91
22653;BME280;11493;43.344;26.226;2024-03-23T06:59:12;99368.06;;;7.67;89.48
22653;BME280;11493;43.344;26.226;2024-03-23T07:01:39;99374.91;;;7.88;87.99
22653;BME280;11493;43.344;26.226;2024-03-23T07:04:06;99368.09;;;8.05;87.79
22653;BME280;11493;43.344;26.226;2024-03-23T07:06:32;99366.34;;;8.28;87.13
22653;BME280;11493;43.344;26.226;2024-03-23T07:09:01;99360.56;;;8.48;86.30
22653;BME280;11493;43.344;26.226;2024-03-23T07:11:28;99363.84;;;8.64;84.93
22653;BME280;11493;43.344;26.226;2024-03-23T07:13:54;99364.41;;;8.79;83.89
22653;BME280;11493;43.344;26.226;2024-03-23T07:16:20;99356.16;;;8.93;83.61
22653;BME280;11493;43.344;26.226;2024-03-23T07:18:46;99351.72;;;9.11;82.58
22653;BME280;11493;43.344;26.226;2024-03-23T07:21:15;99355.88;;;9.36;82.25
22653;BME280;11493;43.344;26.226;2024-03-23T07:23:43;99356.59;;;9.55;82.94
22653;BME280;11493;43.344;26.226;2024-03-23T07:26:19;99331.84;;;9.55;82.01
22653;BME280;11493;43.344;26.226;2024-03-23T07:28:46;99349.50;;;9.76;81.76
22653;BME280;11493;43.344;26.226;2024-03-23T07:31:17;99350.16;;;9.96;80.56
22653;BME280;11493;43.344;26.226;2024-03-23T07:33:46;99332.63;;;10.05;80.25
22653;BME280;11493;43.344;26.226;2024-03-23T07:36:13;99342.59;;;10.37;78.68
22653;BME280;11493;43.344;26.226;2024-03-23T07:38:44;99344.50;;;10.59;77.88
22653;BME280;11493;43.344;26.226;2024-03-23T07:41:20;99343.94;;;10.71;78.10
22653;BME280;11493;43.344;26.226;2024-03-23T07:43:47;99321.66;;;10.81;76.76
22653;BME280;11493;43.344;26.226;2024-03-23T07:46:21;99339.59;;;11.09;76.19
22653;BME280;11493;43.344;26.226;2024-03-23T07:48:49;99309.31;;;11.09;75.49
22653;BME280;11493;43.344;26.226;2024-03-23T07:51:20;99328.97;;;11.42;74.02
22653;BME280;11493;43.344;26.226;2024-03-23T07:53:51;99315.41;;;11.63;73.16
22653;BME280;11493;43.344;26.226;2024-03-23T07:56:25;99333.47;;;11.87;68.92
22653;BME280;11493;43.344;26.226;2024-03-23T07:58:55;99318.69;;;12.00;69.39
22653;BME280;11493;43.344;26.226;2024-03-23T08:01:21;99313.19;;;12.17;66.58
22653;BME280;11493;43.344;26.226;2024-03-23T08:03:52;99326.97;;;12.34;64.49
22653;BME280;11493;43.344;26.226;2024-03-23T08:06:19;99316.06;;;12.46;59.39
22653;BME280;11493;43.344;26.226;2024-03-23T08:08:52;99297.88;;;12.54;57.89
22653;BME280;11493;43.344;26.226;2024-03-23T08:11:30;99307.81;;;12.84;56.29
22653;BME280;11493;43.344;26.226;2024-03-23T08:14:09;99290.25;;;12.89;54.55
22653;BME280;11493;43.344;26.226;2024-03-23T08:16:38;99298.31;;;13.11;52.03
22653;BME280;11493;43.344;26.226;2024-03-23T08:19:05;99299.75;;;13.47;52.11
22653;BME280;11493;43.344;26.226;2024-03-23T08:21:31;99299.16;;;13.62;49.59
22653;BME280;11493;43.344;26.226;2024-03-23T08:23:57;99296.25;;;13.59;47.76
22653;BME280;11493;43.344;26.226;2024-03-23T08:26:25;99296.59;;;13.78;46.54
22653;BME280;11493;43.344;26.226;2024-03-23T08:28:51;99247.31;;;13.59;47.46
22653;BME280;11493;43.344;26.226;2024-03-23T08:31:17;99289.53;;;13.89;47.69
22653;BME280;11493;43.344;26.226;2024-03-23T08:33:44;99255.41;;;13.85;47.29
22653;BME280;11493;43.344;26.226;2024-03-23T08:36:12;99228.09;;;13.84;48.16
22653;BME280;11493;43.344;26.226;2024-03-23T08:38:40;99282.66;;;14.28;47.58
22653;BME280;11493;43.344;26.226;2024-03-23T08:41:08;99279.19;;;14.31;48.73
22653;BME280;11493;43.344;26.226;2024-03-23T08:43:37;99272.78;;;14.39;49.99
22653;BME280;11493;43.344;26.226;2024-03-23T08:46:12;99283.03;;;14.60;48.31
22653;BME280;11493;43.344;26.226;2024-03-23T08:48:46;99265.81;;;14.54;48.20
22653;BME280;11493;43.344;26.226;2024-03-23T08:51:16;99274.28;;;14.70;49.71
22653;BME280;11493;43.344;26.226;2024-03-23T08:53:43;99251.88;;;14.63;50.03
22653;BME280;11493;43.344;26.226;2024-03-23T08:56:12;99267.59;;;14.83;51.14
22653;BME280;11493;43.344;26.226;2024-03-23T08:58:40;99274.50;;;15.01;50.92
22653;BME280;11493;43.344;26.226;2024-03-23T09:01:11;99259.97;;;14.92;48.90
22653;BME280;11493;43.344;26.226;2024-03-23T09:03:41;99255.81;;;14.86;49.51
22653;BME280;11493;43.344;26.226;2024-03-23T09:06:13;99265.97;;;15.06;49.60
22653;BME280;11493;43.344;26.226;2024-03-23T09:08:52;99270.25;;;15.16;49.64
22653;BME280;11493;43.344;26.226;2024-03-23T09:11:21;99255.34;;;15.21;49.46
22653;BME280;11493;43.344;26.226;2024-03-23T09:13:47;99251.09;;;15.23;47.51
22653;BME280;11493;43.344;26.226;2024-03-23T09:16:13;99251.19;;;15.15;46.46
22653;BME280;11493;43.344;26.226;2024-03-23T09:18:39;99259.75;;;15.22;47.28
22653;BME280;11493;43.344;26.226;2024-03-23T09:21:12;99244.47;;;15.40;47.27
22653;BME280;11493;43.344;26.226;2024-03-23T09:23:48;99244.25;;;15.45;46.49
22653;BME280;11493;43.344;26.226;2024-03-23T09:26:16;99239.41;;;15.30;47.64
22653;BME280;11493;43.344;26.226;2024-03-23T09:28:49;99222.09;;;15.33;48.27
22653;BME280;11493;43.344;26.226;2024-03-23T09:31:16;99234.28;;;15.56;46.87
22653;BME280;11493;43.344;26.226;2024-03-23T09:33:44;99232.69;;;15.55;46.79
22653;BME280;11493;43.344;26.226;2024-03-23T09:36:10;99225.84;;;15.65;46.37
22653;BME280;11493;43.344;26.226;2024-03-23T09:38:37;99214.75;;;15.65;44.90
22653;BME280;11493;43.344;26.226;2024-03-23T09:41:08;99220.09;;;15.58;45.69
22653;BME280;11493;43.344;26.226;2024-03-23T09:43:35;99214.84;;;15.68;45.47
22653;BME280;11493;43.344;26.226;2024-03-23T09:46:03;99230.56;;;15.64;45.45
22653;BME280;11493;43.344;26.226;2024-03-23T09:48:29;99223.44;;;15.51;45.60
22653;BME280;11493;43.344;26.226;2024-03-23T09:50:55;99216.72;;;15.52;45.24
22653;BME280;11493;43.344;26.226;2024-03-23T09:53:25;99208.75;;;15.51;44.52
22653;BME280;11493;43.344;26.226;2024-03-23T09:55:51;99207.91;;;15.74;44.20
22653;BME280;11493;43.344;26.226;2024-03-23T09:58:18;99201.84;;;15.85;43.80
22653;BME280;11493;43.344;26.226;2024-03-23T10:00:45;99202.81;;;16.04;44.26
22653;BME280;11493;43.344;26.226;2024-03-23T10:03:11;99194.56;;;16.08;44.33
22653;BME280;11493;43.344;26.226;2024-03-23T10:05:38;99193.81;;;16.23;42.67
22653;BME280;11493;43.344;26.226;2024-03-23T10:08:17;99191.94;;;16.27;42.43
22653;BME280;11493;43.344;26.226;2024-03-23T10:10:46;99180.13;;;16.30;41.25
22653;BME280;11493;43.344;26.226;2024-03-23T10:13:27;99186.00;;;16.13;41.52
22653;BME280;11493;43.344;26.226;2024-03-23T10:15:56;99180.75;;;15.96;42.04
22653;BME280;11493;43.344;26.226;2024-03-23T10:18:25;99172.94;;;16.14;42.32
22653;BME280;11493;43.344;26.226;2024-03-23T10:21:06;99168.72;;;16.20;40.44
22653;BME280;11493;43.344;26.226;2024-03-23T10:23:42;99167.13;;;16.19;41.07
22653;BME280;11493;43.344;26.226;2024-03-23T10:26:12;99168.09;;;16.10;41.32
22653;BME280;11493;43.344;26.226;2024-03-23T10:28:58;99161.91;;;16.17;40.18
22653;BME280;11493;43.344;26.226;2024-03-23T10:31:31;99160.84;;;16.37;40.06
22653;BME280;11493;43.344;26.226;2024-03-23T10:34:02;99151.69;;;16.37;39.52
22653;BME280;11493;43.344;26.226;2024-03-23T10:36:29;99142.88;;;16.31;40.56
22653;BME280;11493;43.344;26.226;2024-03-23T10:38:56;99130.66;;;16.36;39.31
22653;BME280;11493;43.344;26.226;2024-03-23T10:41:28;99124.75;;;16.37;39.08
22653;BME280;11493;43.344;26.226;2024-03-23T10:43:58;99120.97;;;16.46;38.68
22653;BME280;11493;43.344;26.226;2024-03-23T10:46:26;99124.69;;;16.65;38.00
22653;BME280;11493;43.344;26.226;2024-03-23T10:48:53;99122.06;;;16.41;37.55
22653;BME280;11493;43.344;26.226;2024-03-23T10:51:23;99118.41;;;16.68;37.93
22653;BME280;11493;43.344;26.226;2024-03-23T10:53:52;99115.25;;;16.86;37.50
22653;BME280;11493;43.344;26.226;2024-03-23T10:56:23;99113.50;;;16.97;37.56
22653;BME280;11493;43.344;26.226;2024-03-23T10:58:50;99119.31;;;17.07;38.18
22653;BME280;11493;43.344;26.226;2024-03-23T11:01:17;99106.28;;;17.12;38.28
22653;BME280;11493;43.344;26.226;2024-03-23T11:03:54;99098.44;;;16.98;37.94
22653;BME280;11493;43.344;26.226;2024-03-23T11:06:37;99081.50;;;17.03;36.73
22653;BME280;11493;43.344;26.226;2024-03-23T11:09:04;99093.63;;;17.14;36.05
22653;BME280;11493;43.344;26.226;2024-03-23T11:11:53;99087.09;;;16.87;36.71
22653;BME280;11493;43.344;26.226;2024-03-23T11:14:22;99083.31;;;16.95;36.40
22653;BME280;11493;43.344;26.226;2024-03-23T11:17:19;99068.25;;;16.96;37.10
22653;BME280;11493;43.344;26.226;2024-03-23T11:20:03;99066.91;;;17.09;37.11
22653;BME280;11493;43.344;26.226;2024-03-23T11:22:44;99062.75;;;17.19;37.34
22653;BME280;11493;43.344;26.226;2024-03-23T11:25:26;99064.66;;;17.15;36.08
22653;BME280;11493;43.344;26.226;2024-03-23T11:27:54;99062.97;;;17.11;37.00
22653;BME280;11493;43.344;26.226;2024-03-23T11:30:22;99061.81;;;17.31;35.68
22653;BME280;11493;43.344;26.226;2024-03-23T11:32:50;99042.31;;;17.12;36.34
22653;BME280;11493;43.344;26.226;2024-03-23T11:35:34;99049.44;;;17.09;34.96
22653;BME280;11493;43.344;26.226;2024-03-23T11:38:14;99042.78;;;17.14;35.15
22653;BME280;11493;43.344;26.226;2024-03-23T11:40:49;99038.53;;;17.00;34.87
22653;BME280;11493;43.344;26.226;2024-03-23T11:43:17;99035.91;;;17.07;35.15
22653;BME280;11493;43.344;26.226;2024-03-23T11:45:52;99027.13;;;17.25;35.57
22653;BME280;11493;43.344;26.226;2024-03-23T11:48:20;99016.41;;;17.46;34.18
22653;BME280;11493;43.344;26.226;2024-03-23T11:50:49;99005.75;;;17.29;34.39
22653;BME280;11493;43.344;26.226;2024-03-23T11:58:11;99013.06;;;17.37;35.55
22653;BME280;11493;43.344;26.226;2024-03-23T12:00:38;98997.34;;;17.25;34.21
22653;BME280;11493;43.344;26.226;2024-03-23T12:03:07;99004.06;;;17.44;34.10
22653;BME280;11493;43.344;26.226;2024-03-23T12:05:36;98988.16;;;17.44;35.43
22653;BME280;11493;43.344;26.226;2024-03-23T12:08:17;98985.53;;;17.51;35.86
22653;BME280;11493;43.344;26.226;2024-03-23T12:10:46;98986.31;;;17.52;35.63
22653;BME280;11493;43.344;26.226;2024-03-23T12:13:22;98985.59;;;17.55;36.00
22653;BME280;11493;43.344;26.226;2024-03-23T12:15:50;98978.28;;;17.66;35.17
22653;BME280;11493;43.344;26.226;2024-03-23T12:18:17;98980.25;;;17.65;34.35
22653;BME280;11493;43.344;26.226;2024-03-23T12:20:44;98965.50;;;17.65;34.93
22653;BME280;11493;43.344;26.226;2024-03-23T12:23:12;98965.78;;;17.79;35.56
22653;BME280;11493;43.344;26.226;2024-03-23T12:25:39;98963.00;;;17.79;35.12
22653;BME280;11493;43.344;26.226;2024-03-23T12:28:06;98961.91;;;17.87;34.43
22653;BME280;11493;43.344;26.226;2024-03-23T12:30:39;98947.72;;;17.69;34.89
22653;BME280;11493;43.344;26.226;2024-03-23T12:33:05;98948.72;;;17.81;34.29
22653;BME280;11493;43.344;26.226;2024-03-23T12:35:33;98951.25;;;17.66;34.61
22653;BME280;11493;43.344;26.226;2024-03-23T12:37:59;98951.38;;;17.73;34.73
22653;BME280;11493;43.344;26.226;2024-03-23T12:40:26;98942.22;;;17.73;34.67
22653;BME280;11493;43.344;26.226;2024-03-23T12:42:54;98950.63;;;17.77;34.53
22653;BME280;11493;43.344;26.226;2024-03-23T12:45:22;98949.22;;;17.90;33.76
22653;BME280;11493;43.344;26.226;2024-03-23T12:47:48;98930.13;;;17.88;33.08
22653;BME280;11493;43.344;26.226;2024-03-23T12:50:14;98931.59;;;17.79;34.69
22653;BME280;11493;43.344;26.226;2024-03-23T12:52:40;98929.22;;;17.81;33.96
22653;BME280;11493;43.344;26.226;2024-03-23T12:55:06;98925.16;;;17.75;35.01
22653;BME280;11493;43.344;26.226;2024-03-23T12:57:32;98919.72;;;17.82;33.80
22653;BME280;11493;43.344;26.226;2024-03-23T12:59:59;98915.78;;;17.86;33.24
22653;BME280;11493;43.344;26.226;2024-03-23T13:02:26;98913.38;;;17.85;33.46
22653;BME280;11493;43.344;26.226;2024-03-23T13:04:53;98906.97;;;17.81;34.28
22653;BME280;11493;43.344;26.226;2024-03-23T13:07:21;98891.56;;;17.64;34.48
22653;BME280;11493;43.344;26.226;2024-03-23T13:09:51;98906.84;;;17.73;35.32
22653;BME280;11493;43.344;26.226;2024-03-23T13:12:19;98896.91;;;17.72;34.37
22653;BME280;11493;43.344;26.226;2024-03-23T13:14:47;98894.88;;;17.69;33.90
22653;BME280;11493;43.344;26.226;2024-03-23T13:17:13;98889.25;;;17.66;34.21
22653;BME280;11493;43.344;26.226;2024-03-23T13:19:39;98897.28;;;17.71;33.27
22653;BME280;11493;43.344;26.226;2024-03-23T13:22:05;98877.66;;;17.64;33.51
22653;BME280;11493;43.344;26.226;2024-03-23T13:24:31;98881.53;;;17.59;34.07
22653;BME280;11493;43.344;26.226;2024-03-23T13:26:58;98876.28;;;17.54;33.39
22653;BME280;11493;43.344;26.226;2024-03-23T13:29:24;98878.03;;;17.62;33.28
22653;BME280;11493;43.344;26.226;2024-03-23T13:31:52;98872.34;;;17.55;33.16
22653;BME280;11493;43.344;26.226;2024-03-23T13:34:18;98863.56;;;17.53;33.45
22653;BME280;11493;43.344;26.226;2024-03-23T13:36:44;98869.13;;;17.53;33.32
22653;BME280;11493;43.344;26.226;2024-03-23T13:39:12;98859.59;;;17.54;33.54
22653;BME280;11493;43.344;26.226;2024-03-23T13:41:43;98857.31;;;17.60;33.41
22653;BME280;11493;43.344;26.226;2024-03-23T13:44:11;98859.47;;;17.47;33.75
22653;BME280;11493;43.344;26.226;2024-03-23T13:46:42;98846.00;;;17.49;33.55
22653;BME280;11493;43.344;26.226;2024-03-23T13:49:29;98852.56;;;17.60;33.66
22653;BME280;11493;43.344;26.226;2024-03-23T13:51:57;98853.19;;;17.73;34.92
22653;BME280;11493;43.344;26.226;2024-03-23T13:54:27;98843.22;;;17.72;34.21
22653;BME280;11493;43.344;26.226;2024-03-23T13:56:55;98841.38;;;17.83;34.53